sensor_id;sensor_type;location;lat;lon;timestamp;pressure;altitude;pressure_sealevel;temperature;humidity
44751;BME280;30477;48.224;11.470;2023-05-12T00:00:23;95733.44;;;10.39;83.56
44751;BME280;30477;48.224;11.470;2023-05-12T00:02:48;95733.75;;;10.36;83.68
44751;BME280;30477;48.224;11.470;2023-05-12T00:05:13;95733.31;;;10.41;83.55
44751;BME280;30477;48.224;11.470;2023-05-12T00:07:38;95732.34;;;10.42;83.55
44751;BME280;30477;48.224;11.470;2023-05-12T00:10:04;95732.19;;;10.43;83.50
44751;BME280;30477;48.224;11.470;2023-05-12T00:12:30;95726.22;;;10.43;83.33
44751;BME280;30477;48.224;11.470;2023-05-12T00:14:56;95732.19;;;10.43;83.86
44751;BME280;30477;48.224;11.470;2023-05-12T00:17:21;95728.81;;;10.43;83.76
44751;BME280;30477;48.224;11.470;2023-05-12T00:19:46;95735.63;;;10.44;83.64
44751;BME280;30477;48.224;11.470;2023-05-12T00:22:12;95728.00;;;10.42;83.57
44751;BME280;30477;48.224;11.470;2023-05-12T00:24:38;95728.00;;;10.42;83.64
44751;BME280;30477;48.224;11.470;2023-05-12T00:27:04;95727.19;;;10.42;83.75
44751;BME280;30477;48.224;11.470;2023-05-12T00:29:32;95728.00;;;10.42;83.65
44751;BME280;30477;48.224;11.470;2023-05-12T00:31:57;95723.53;;;10.34;83.53
44751;BME280;30477;48.224;11.470;2023-05-12T00:34:22;95721.50;;;10.28;83.29
44751;BME280;30477;48.224;11.470;2023-05-12T00:36:48;95725.88;;;10.28;83.61
44751;BME280;30477;48.224;11.470;2023-05-12T00:39:13;95716.34;;;10.28;83.58
44751;BME280;30477;48.224;11.470;2023-05-12T00:41:38;95713.38;;;10.23;83.58
44751;BME280;30477;48.224;11.470;2023-05-12T00:44:04;95710.34;;;10.28;83.70
44751;BME280;30477;48.224;11.470;2023-05-12T00:46:29;95716.50;;;10.27;83.75
44751;BME280;30477;48.224;11.470;2023-05-12T00:48:56;95712.84;;;10.29;83.83
44751;BME280;30477;48.224;11.470;2023-05-12T00:51:22;95711.97;;;10.29;83.89
44751;BME280;30477;48.224;11.470;2023-05-12T00:53:48;95706.78;;;10.29;83.67
44751;BME280;30477;48.224;11.470;2023-05-12T00:56:14;95710.34;;;10.28;83.73
44751;BME280;30477;48.224;11.470;2023-05-12T00:58:41;95699.19;;;10.27;83.83
44751;BME280;30477;48.224;11.470;2023-05-12T01:01:06;95715.91;;;10.33;83.69
44751;BME280;30477;48.224;11.470;2023-05-12T01:03:32;95701.91;;;10.35;83.95
44751;BME280;30477;48.224;11.470;2023-05-12T01:06:36;95706.50;;;10.42;83.85
44751;BME280;30477;48.224;11.470;2023-05-12T01:09:02;95712.47;;;10.42;84.05
44751;BME280;30477;48.224;11.470;2023-05-12T01:11:28;95706.31;;;10.43;83.86
44751;BME280;30477;48.224;11.470;2023-05-12T01:13:53;95705.38;;;10.44;83.65
44751;BME280;30477;48.224;11.470;2023-05-12T01:16:22;95708.09;;;10.43;83.71
44751;BME280;30477;48.224;11.470;2023-05-12T01:18:49;95706.31;;;10.43;83.79
44751;BME280;30477;48.224;11.470;2023-05-12T01:21:18;95711.13;;;10.38;83.52
44751;BME280;30477;48.224;11.470;2023-05-12T01:23:49;95705.44;;;10.34;83.56
44751;BME280;30477;48.224;11.470;2023-05-12T01:26:15;95712.06;;;10.37;84.01
44751;BME280;30477;48.224;11.470;2023-05-12T01:28:42;95712.06;;;10.37;83.72
44751;BME280;30477;48.224;11.470;2023-05-12T01:31:08;95703.66;;;10.35;83.93
44751;BME280;30477;48.224;11.470;2023-05-12T01:33:33;95709.50;;;10.37;84.21
44751;BME280;30477;48.224;11.470;2023-05-12T01:35:59;95704.50;;;10.35;84.22
44751;BME280;30477;48.224;11.470;2023-05-12T01:38:25;95711.41;;;10.35;84.17
44751;BME280;30477;48.224;11.470;2023-05-12T01:40:51;95708.81;;;10.35;84.09
44751;BME280;30477;48.224;11.470;2023-05-12T01:43:16;95705.56;;;10.33;84.17
44751;BME280;30477;48.224;11.470;2023-05-12T01:45:41;95704.09;;;10.30;84.29
44751;BME280;30477;48.224;11.470;2023-05-12T01:48:07;95704.63;;;10.34;84.40
44751;BME280;30477;48.224;11.470;2023-05-12T01:50:32;95707.88;;;10.36;84.41
44751;BME280;30477;48.224;11.470;2023-05-12T01:52:58;95711.72;;;10.32;83.91
44751;BME280;30477;48.224;11.470;2023-05-12T01:55:23;95709.94;;;10.32;84.34
44751;BME280;30477;48.224;11.470;2023-05-12T01:57:49;95709.81;;;10.34;84.23
44751;BME280;30477;48.224;11.470;2023-05-12T02:00:14;95706.41;;;10.33;84.44
44751;BME280;30477;48.224;11.470;2023-05-12T02:02:40;95707.88;;;10.36;84.46
44751;BME280;30477;48.224;11.470;2023-05-12T02:05:07;95712.25;;;10.35;84.27
44751;BME280;30477;48.224;11.470;2023-05-12T02:07:33;95710.06;;;10.31;84.41
44751;BME280;30477;48.224;11.470;2023-05-12T02:09:58;95700.56;;;10.31;84.27
44751;BME280;30477;48.224;11.470;2023-05-12T02:12:24;95701.22;;;10.33;84.51
44751;BME280;30477;48.224;11.470;2023-05-12T02:14:49;95702.84;;;10.34;84.46
44751;BME280;30477;48.224;11.470;2023-05-12T02:17:14;95703.66;;;10.35;84.43
44751;BME280;30477;48.224;11.470;2023-05-12T02:19:41;95702.72;;;10.36;84.33
44751;BME280;30477;48.224;11.470;2023-05-12T02:22:06;95706.25;;;10.35;84.58
44751;BME280;30477;48.224;11.470;2023-05-12T02:24:31;95700.25;;;10.34;84.58
44751;BME280;30477;48.224;11.470;2023-05-12T02:26:57;95705.75;;;10.31;84.44
44751;BME280;30477;48.224;11.470;2023-05-12T02:29:22;95695.88;;;10.35;84.57
44751;BME280;30477;48.224;11.470;2023-05-12T02:31:47;95706.25;;;10.35;84.61
44751;BME280;30477;48.224;11.470;2023-05-12T02:34:13;95692.34;;;10.36;84.33
44751;BME280;30477;48.224;11.470;2023-05-12T02:36:38;95689.78;;;10.36;84.63
44751;BME280;30477;48.224;11.470;2023-05-12T02:39:04;95690.31;;;10.40;84.45
44751;BME280;30477;48.224;11.470;2023-05-12T02:41:30;95687.53;;;10.41;84.41
44751;BME280;30477;48.224;11.470;2023-05-12T02:43:55;95684.28;;;10.39;84.03
44751;BME280;30477;48.224;11.470;2023-05-12T02:46:20;95688.66;;;10.39;84.04
44751;BME280;30477;48.224;11.470;2023-05-12T02:48:46;95688.53;;;10.40;84.03
44751;BME280;30477;48.224;11.470;2023-05-12T02:51:11;95694.63;;;10.39;84.06
44751;BME280;30477;48.224;11.470;2023-05-12T02:53:36;95692.06;;;10.39;83.97
44751;BME280;30477;48.224;11.470;2023-05-12T02:56:02;95700.25;;;10.34;83.91
44751;BME280;30477;48.224;11.470;2023-05-12T02:58:27;95701.38;;;10.32;83.60
44751;BME280;30477;48.224;11.470;2023-05-12T03:00:52;95698.94;;;10.30;83.66
44751;BME280;30477;48.224;11.470;2023-05-12T03:03:18;95698.13;;;10.30;83.78
44751;BME280;30477;48.224;11.470;2023-05-12T03:05:43;95703.28;;;10.30;83.84
44751;BME280;30477;48.224;11.470;2023-05-12T03:08:09;95702.97;;;10.33;83.83
44751;BME280;30477;48.224;11.470;2023-05-12T03:10:34;95701.22;;;10.33;83.82
44751;BME280;30477;48.224;11.470;2023-05-12T03:12:59;95700.72;;;10.30;83.94
44751;BME280;30477;48.224;11.470;2023-05-12T03:15:25;95700.81;;;10.28;83.59
44751;BME280;30477;48.224;11.470;2023-05-12T03:17:50;95705.31;;;10.26;83.29
44751;BME280;30477;48.224;11.470;2023-05-12T03:20:15;95707.91;;;10.26;83.62
44751;BME280;30477;48.224;11.470;2023-05-12T03:22:41;95705.50;;;10.25;83.69
44751;BME280;30477;48.224;11.470;2023-05-12T03:25:08;95710.66;;;10.25;84.07
44751;BME280;30477;48.224;11.470;2023-05-12T03:27:34;95709.81;;;10.24;83.72
44751;BME280;30477;48.224;11.470;2023-05-12T03:30:00;95711.25;;;10.19;83.67
44751;BME280;30477;48.224;11.470;2023-05-12T03:32:26;95709.59;;;10.18;84.13
44751;BME280;30477;48.224;11.470;2023-05-12T03:34:53;95704.16;;;10.21;84.09
44751;BME280;30477;48.224;11.470;2023-05-12T03:37:18;95704.81;;;10.23;84.04
44751;BME280;30477;48.224;11.470;2023-05-12T03:39:43;95703.84;;;10.24;84.47
44751;BME280;30477;48.224;11.470;2023-05-12T03:42:09;95703.84;;;10.24;84.10
44751;BME280;30477;48.224;11.470;2023-05-12T03:44:34;95703.84;;;10.24;84.27
44751;BME280;30477;48.224;11.470;2023-05-12T03:46:59;95707.41;;;10.23;84.48
44751;BME280;30477;48.224;11.470;2023-05-12T03:49:25;95701.56;;;10.21;84.52
44751;BME280;30477;48.224;11.470;2023-05-12T03:51:50;95706.88;;;10.19;84.36
44751;BME280;30477;48.224;11.470;2023-05-12T03:54:15;95706.88;;;10.19;84.46
44751;BME280;30477;48.224;11.470;2023-05-12T03:56:41;95703.91;;;10.14;84.25
44751;BME280;30477;48.224;11.470;2023-05-12T03:59:06;95708.56;;;10.10;84.36
44751;BME280;30477;48.224;11.470;2023-05-12T04:01:31;95702.34;;;10.03;84.38
44751;BME280;30477;48.224;11.470;2023-05-12T04:03:57;95704.34;;;10.09;84.61
44751;BME280;30477;48.224;11.470;2023-05-12T04:06:22;95703.09;;;10.13;84.70
44751;BME280;30477;48.224;11.470;2023-05-12T04:08:47;95704.75;;;10.14;84.45
44751;BME280;30477;48.224;11.470;2023-05-12T04:11:12;95706.50;;;10.14;84.35
44751;BME280;30477;48.224;11.470;2023-05-12T04:13:38;95704.75;;;10.14;84.52
44751;BME280;30477;48.224;11.470;2023-05-12T04:16:04;95706.34;;;10.15;84.60
44751;BME280;30477;48.224;11.470;2023-05-12T04:18:29;95705.91;;;10.20;84.82
44751;BME280;30477;48.224;11.470;2023-05-12T04:20:55;95711.75;;;10.22;84.48
44751;BME280;30477;48.224;11.470;2023-05-12T04:23:21;95716.66;;;10.25;84.70
44751;BME280;30477;48.224;11.470;2023-05-12T04:25:47;95712.84;;;10.29;84.86
44751;BME280;30477;48.224;11.470;2023-05-12T04:28:12;95714.97;;;10.34;84.57
44751;BME280;30477;48.224;11.470;2023-05-12T04:30:38;95711.41;;;10.35;84.76
44751;BME280;30477;48.224;11.470;2023-05-12T04:33:04;95718.91;;;10.38;84.88
44751;BME280;30477;48.224;11.470;2023-05-12T04:35:29;95716.31;;;10.38;84.51
44751;BME280;30477;48.224;11.470;2023-05-12T04:37:55;95723.09;;;10.39;84.92
44751;BME280;30477;48.224;11.470;2023-05-12T04:40:20;95721.03;;;10.43;84.70
44751;BME280;30477;48.224;11.470;2023-05-12T04:42:46;95719.25;;;10.43;84.60
44751;BME280;30477;48.224;11.470;2023-05-12T04:45:11;95726.59;;;10.48;84.75
44751;BME280;30477;48.224;11.470;2023-05-12T04:47:37;95732.44;;;10.50;84.73
44751;BME280;30477;48.224;11.470;2023-05-12T04:50:02;95724.38;;;10.53;84.73
44751;BME280;30477;48.224;11.470;2023-05-12T04:52:28;95720.53;;;10.57;84.68
44751;BME280;30477;48.224;11.470;2023-05-12T04:54:54;95727.19;;;10.60;84.51
44751;BME280;30477;48.224;11.470;2023-05-12T04:57:19;95723.78;;;10.59;84.24
44751;BME280;30477;48.224;11.470;2023-05-12T04:59:45;95733.00;;;10.62;84.11
44751;BME280;30477;48.224;11.470;2023-05-12T05:02:10;95735.31;;;10.65;84.02
44751;BME280;30477;48.224;11.470;2023-05-12T05:04:36;95735.31;;;10.65;84.15
44751;BME280;30477;48.224;11.470;2023-05-12T05:07:02;95730.81;;;10.67;84.08
44751;BME280;30477;48.224;11.470;2023-05-12T05:09:27;95733.75;;;10.72;84.21
44751;BME280;30477;48.224;11.470;2023-05-12T05:11:52;95735.59;;;10.80;84.19
44751;BME280;30477;48.224;11.470;2023-05-12T05:14:18;95733.69;;;10.82;83.86
44751;BME280;30477;48.224;11.470;2023-05-12T05:16:43;95739.53;;;10.84;83.76
44751;BME280;30477;48.224;11.470;2023-05-12T05:19:10;95734.78;;;10.79;83.67
44751;BME280;30477;48.224;11.470;2023-05-12T05:21:35;95732.56;;;10.84;83.52
44751;BME280;30477;48.224;11.470;2023-05-12T05:24:00;95738.47;;;10.94;83.74
44751;BME280;30477;48.224;11.470;2023-05-12T05:26:26;95740.03;;;10.87;83.21
44751;BME280;30477;48.224;11.470;2023-05-12T05:28:51;95735.50;;;10.89;82.94
44751;BME280;30477;48.224;11.470;2023-05-12T05:31:19;95742.59;;;10.87;83.05
44751;BME280;30477;48.224;11.470;2023-05-12T05:33:45;95744.78;;;10.92;83.04
44751;BME280;30477;48.224;11.470;2023-05-12T05:36:10;95747.78;;;10.87;82.79
44751;BME280;30477;48.224;11.470;2023-05-12T05:38:36;95750.53;;;10.86;83.13
44751;BME280;30477;48.224;11.470;2023-05-12T05:41:01;95748.91;;;10.85;83.00
44751;BME280;30477;48.224;11.470;2023-05-12T05:43:27;95746.19;;;10.86;82.71
44751;BME280;30477;48.224;11.470;2023-05-12T05:45:54;95751.03;;;10.89;82.92
44751;BME280;30477;48.224;11.470;2023-05-12T05:48:21;95748.09;;;10.84;82.78
44751;BME280;30477;48.224;11.470;2023-05-12T05:50:47;95747.19;;;10.93;82.70
44751;BME280;30477;48.224;11.470;2023-05-12T05:53:13;95753.03;;;10.95;82.13
44751;BME280;30477;48.224;11.470;2023-05-12T05:55:38;95745.84;;;10.89;82.27
44751;BME280;30477;48.224;11.470;2023-05-12T05:58:03;95751.41;;;10.94;82.17
44751;BME280;30477;48.224;11.470;2023-05-12T06:00:29;95752.09;;;10.96;82.36
44751;BME280;30477;48.224;11.470;2023-05-12T06:02:55;95753.69;;;10.97;82.15
44751;BME280;30477;48.224;11.470;2023-05-12T06:05:20;95755.63;;;10.95;81.79
44751;BME280;30477;48.224;11.470;2023-05-12T06:07:45;95756.16;;;10.99;82.06
44751;BME280;30477;48.224;11.470;2023-05-12T06:10:11;95749.25;;;11.08;82.10
44751;BME280;30477;48.224;11.470;2023-05-12T06:12:36;95752.22;;;11.13;81.77
44751;BME280;30477;48.224;11.470;2023-05-12T06:15:02;95759.06;;;11.22;82.00
44751;BME280;30477;48.224;11.470;2023-05-12T06:17:27;95757.44;;;11.21;81.58
44751;BME280;30477;48.224;11.470;2023-05-12T06:19:52;95755.16;;;11.18;81.75
44751;BME280;30477;48.224;11.470;2023-05-12T06:22:18;95750.19;;;11.25;81.92
44751;BME280;30477;48.224;11.470;2023-05-12T06:24:43;95763.28;;;11.23;81.32
44751;BME280;30477;48.224;11.470;2023-05-12T06:27:08;95762.00;;;11.27;81.75
44751;BME280;30477;48.224;11.470;2023-05-12T06:29:34;95758.75;;;11.25;81.04
44751;BME280;30477;48.224;11.470;2023-05-12T06:31:59;95769.03;;;11.35;81.12
44751;BME280;30477;48.224;11.470;2023-05-12T06:34:24;95764.81;;;11.34;80.93
44751;BME280;30477;48.224;11.470;2023-05-12T06:36:50;95771.63;;;11.35;80.79
44751;BME280;30477;48.224;11.470;2023-05-12T06:39:16;95765.63;;;11.34;81.01
44751;BME280;30477;48.224;11.470;2023-05-12T06:41:41;95772.69;;;11.24;80.75
44751;BME280;30477;48.224;11.470;2023-05-12T06:44:06;95767.66;;;11.23;80.55
44751;BME280;30477;48.224;11.470;2023-05-12T06:46:37;95765.91;;;11.31;80.56
44751;BME280;30477;48.224;11.470;2023-05-12T06:49:02;95774.66;;;11.30;80.32
44751;BME280;30477;48.224;11.470;2023-05-12T06:51:27;95773.09;;;11.37;80.39
44751;BME280;30477;48.224;11.470;2023-05-12T06:53:53;95779.00;;;11.48;80.73
44751;BME280;30477;48.224;11.470;2023-05-12T06:56:18;95764.50;;;11.63;80.52
44751;BME280;30477;48.224;11.470;2023-05-12T06:58:44;95766.66;;;11.68;80.04
44751;BME280;30477;48.224;11.470;2023-05-12T07:01:09;95773.44;;;11.69;79.87
44751;BME280;30477;48.224;11.470;2023-05-12T07:03:35;95763.06;;;11.69;79.81
44751;BME280;30477;48.224;11.470;2023-05-12T07:06:00;95764.50;;;11.63;79.61
44751;BME280;30477;48.224;11.470;2023-05-12T07:08:26;95771.31;;;11.64;79.51
44751;BME280;30477;48.224;11.470;2023-05-12T07:10:51;95770.69;;;11.70;79.54
44751;BME280;30477;48.224;11.470;2023-05-12T07:13:16;95766.47;;;11.69;79.58
44751;BME280;30477;48.224;11.470;2023-05-12T07:15:43;95769.91;;;11.70;79.16
44751;BME280;30477;48.224;11.470;2023-05-12T07:18:08;95776.19;;;11.67;78.81
44751;BME280;30477;48.224;11.470;2023-05-12T07:20:33;95768.88;;;11.63;78.75
44751;BME280;30477;48.224;11.470;2023-05-12T07:22:58;95777.81;;;11.68;78.67
44751;BME280;30477;48.224;11.470;2023-05-12T07:25:24;95768.44;;;11.75;78.77
44751;BME280;30477;48.224;11.470;2023-05-12T07:27:49;95763.25;;;11.75;78.48
44751;BME280;30477;48.224;11.470;2023-05-12T07:30:15;95767.44;;;11.68;78.89
44751;BME280;30477;48.224;11.470;2023-05-12T07:32:40;95769.44;;;11.74;78.86
44751;BME280;30477;48.224;11.470;2023-05-12T07:35:07;95773.63;;;11.75;78.69
44751;BME280;30477;48.224;11.470;2023-05-12T07:37:33;95767.44;;;11.68;78.25
44751;BME280;30477;48.224;11.470;2023-05-12T07:39:59;95770.81;;;11.61;78.39
44751;BME280;30477;48.224;11.470;2023-05-12T07:42:24;95768.56;;;11.66;78.91
44751;BME280;30477;48.224;11.470;2023-05-12T07:44:49;95773.16;;;11.72;78.52
44751;BME280;30477;48.224;11.470;2023-05-12T07:47:15;95772.94;;;11.65;78.74
44751;BME280;30477;48.224;11.470;2023-05-12T07:49:40;95770.97;;;11.59;78.30
44751;BME280;30477;48.224;11.470;2023-05-12T07:52:06;95774.19;;;11.53;78.27
44751;BME280;30477;48.224;11.470;2023-05-12T07:54:31;95779.66;;;11.50;78.10
44751;BME280;30477;48.224;11.470;2023-05-12T07:56:57;95774.31;;;11.51;78.31
44751;BME280;30477;48.224;11.470;2023-05-12T07:59:22;95778.38;;;11.54;77.88
44751;BME280;30477;48.224;11.470;2023-05-12T08:01:47;95776.44;;;11.56;78.02
44751;BME280;30477;48.224;11.470;2023-05-12T08:04:13;95774.72;;;11.65;77.71
44751;BME280;30477;48.224;11.470;2023-05-12T08:06:38;95773.59;;;11.67;77.67
44751;BME280;30477;48.224;11.470;2023-05-12T08:09:04;95773.91;;;11.64;77.60
44751;BME280;30477;48.224;11.470;2023-05-12T08:11:29;95772.31;;;11.71;77.21
44751;BME280;30477;48.224;11.470;2023-05-12T08:13:54;95769.28;;;11.84;77.16
44751;BME280;30477;48.224;11.470;2023-05-12T08:16:20;95774.00;;;11.81;76.85
44751;BME280;30477;48.224;11.470;2023-05-12T08:18:45;95769.56;;;11.73;76.95
44751;BME280;30477;48.224;11.470;2023-05-12T08:21:10;95771.66;;;11.69;76.48
44751;BME280;30477;48.224;11.470;2023-05-12T08:23:36;95772.78;;;11.67;76.78
44751;BME280;30477;48.224;11.470;2023-05-12T08:26:04;95779.09;;;11.64;76.99
44751;BME280;30477;48.224;11.470;2023-05-12T08:28:30;95785.03;;;11.56;76.71
44751;BME280;30477;48.224;11.470;2023-05-12T08:30:56;95784.03;;;11.49;76.70
44751;BME280;30477;48.224;11.470;2023-05-12T08:33:22;95780.31;;;11.52;76.55
44751;BME280;30477;48.224;11.470;2023-05-12T08:35:47;95786.09;;;11.46;76.38
44751;BME280;30477;48.224;11.470;2023-05-12T08:38:13;95788.09;;;11.52;76.55
44751;BME280;30477;48.224;11.470;2023-05-12T08:43:56;95788.41;;;11.49;76.50
44751;BME280;30477;48.224;11.470;2023-05-12T08:46:24;95788.41;;;11.49;76.34
44751;BME280;30477;48.224;11.470;2023-05-12T08:48:51;95788.88;;;11.52;76.37
44751;BME280;30477;48.224;11.470;2023-05-12T08:51:18;95786.47;;;11.51;76.31
44751;BME280;30477;48.224;11.470;2023-05-12T08:53:46;95792.06;;;11.64;76.61
44751;BME280;30477;48.224;11.470;2023-05-12T08:56:14;95784.31;;;11.72;76.89
44751;BME280;30477;48.224;11.470;2023-05-12T08:58:44;95790.84;;;11.76;77.06
44751;BME280;30477;48.224;11.470;2023-05-12T09:01:10;95784.19;;;11.74;77.08
44751;BME280;30477;48.224;11.470;2023-05-12T09:03:36;95786.22;;;11.62;76.48
44751;BME280;30477;48.224;11.470;2023-05-12T09:06:01;95786.25;;;11.70;76.53
44751;BME280;30477;48.224;11.470;2023-05-12T09:08:29;95785.31;;;11.79;76.78
44751;BME280;30477;48.224;11.470;2023-05-12T09:10:57;95787.38;;;11.94;76.55
44751;BME280;30477;48.224;11.470;2023-05-12T09:13:36;95786.09;;;11.98;76.57
44751;BME280;30477;48.224;11.470;2023-05-12T09:16:03;95788.41;;;12.01;76.75
44751;BME280;30477;48.224;11.470;2023-05-12T09:18:47;95785.16;;;11.99;76.72
44751;BME280;30477;48.224;11.470;2023-05-12T09:21:14;95791.63;;;12.03;76.70
44751;BME280;30477;48.224;11.470;2023-05-12T09:23:39;95792.28;;;12.05;76.46
44751;BME280;30477;48.224;11.470;2023-05-12T09:26:04;95785.38;;;12.14;76.58
44751;BME280;30477;48.224;11.470;2023-05-12T09:28:37;95782.31;;;12.27;76.64
44751;BME280;30477;48.224;11.470;2023-05-12T09:31:13;95787.38;;;12.36;76.54
44751;BME280;30477;48.224;11.470;2023-05-12T09:33:39;95780.59;;;12.44;76.44
44751;BME280;30477;48.224;11.470;2023-05-12T09:36:05;95778.84;;;12.61;76.51
44751;BME280;30477;48.224;11.470;2023-05-12T09:38:30;95781.75;;;12.66;76.21
44751;BME280;30477;48.224;11.470;2023-05-12T09:40:55;95784.72;;;12.71;76.26
44751;BME280;30477;48.224;11.470;2023-05-12T09:43:21;95786.47;;;12.70;75.70
44751;BME280;30477;48.224;11.470;2023-05-12T09:45:46;95785.66;;;12.62;75.30
44751;BME280;30477;48.224;11.470;2023-05-12T09:48:14;95786.47;;;12.62;75.18
44751;BME280;30477;48.224;11.470;2023-05-12T09:53:08;95779.50;;;12.71;74.64
44751;BME280;30477;48.224;11.470;2023-05-12T09:55:35;95781.13;;;12.80;74.04
44751;BME280;30477;48.224;11.470;2023-05-12T09:58:01;95776.44;;;12.75;73.95
44751;BME280;30477;48.224;11.470;2023-05-12T10:00:28;95779.03;;;12.75;73.78
44751;BME280;30477;48.224;11.470;2023-05-12T10:02:54;95780.81;;;12.75;73.80
44751;BME280;30477;48.224;11.470;2023-05-12T10:05:20;95774.34;;;12.79;73.19
44751;BME280;30477;48.224;11.470;2023-05-12T10:07:49;95772.72;;;12.94;73.24
44751;BME280;30477;48.224;11.470;2023-05-12T10:10:22;95775.63;;;12.75;72.18
44751;BME280;30477;48.224;11.470;2023-05-12T10:12:48;95777.59;;;12.89;72.95
44751;BME280;30477;48.224;11.470;2023-05-12T10:15:15;95776.44;;;12.92;72.01
44751;BME280;30477;48.224;11.470;2023-05-12T10:17:42;95777.09;;;13.02;71.79
44751;BME280;30477;48.224;11.470;2023-05-12T10:20:08;95779.88;;;13.17;71.44
44751;BME280;30477;48.224;11.470;2023-05-12T10:22:37;95783.25;;;13.09;69.96
44751;BME280;30477;48.224;11.470;2023-05-12T10:25:03;95780.19;;;13.14;69.88
44751;BME280;30477;48.224;11.470;2023-05-12T10:27:31;95779.22;;;13.07;68.67
44751;BME280;30477;48.224;11.470;2023-05-12T10:29:57;95786.34;;;12.96;68.01
44751;BME280;30477;48.224;11.470;2023-05-12T10:32:23;95782.59;;;12.99;68.35
44751;BME280;30477;48.224;11.470;2023-05-12T10:34:48;95777.56;;;13.06;67.64
44751;BME280;30477;48.224;11.470;2023-05-12T10:37:14;95774.66;;;13.00;67.58
44751;BME280;30477;48.224;11.470;2023-05-12T10:39:50;95778.88;;;13.10;67.38
44751;BME280;30477;48.224;11.470;2023-05-12T10:42:19;95777.25;;;13.09;66.60
44751;BME280;30477;48.224;11.470;2023-05-12T10:44:50;95779.88;;;13.09;66.59
44751;BME280;30477;48.224;11.470;2023-05-12T10:47:16;95783.41;;;12.99;65.90
44751;BME280;30477;48.224;11.470;2023-05-12T10:49:41;95778.69;;;12.87;65.24
44751;BME280;30477;48.224;11.470;2023-05-12T10:52:10;95780.50;;;12.86;65.25
44751;BME280;30477;48.224;11.470;2023-05-12T10:54:40;95788.13;;;12.79;64.96
44751;BME280;30477;48.224;11.470;2023-05-12T10:57:13;95784.72;;;12.87;65.75
44751;BME280;30477;48.224;11.470;2023-05-12T10:59:50;95788.59;;;12.67;64.34
44751;BME280;30477;48.224;11.470;2023-05-12T11:02:17;95785.66;;;12.62;64.90
44751;BME280;30477;48.224;11.470;2023-05-12T11:04:55;95790.19;;;12.59;65.23
44751;BME280;30477;48.224;11.470;2023-05-12T11:07:23;95785.81;;;12.52;65.42
44751;BME280;30477;48.224;11.470;2023-05-12T11:09:50;95789.50;;;12.49;66.03
44751;BME280;30477;48.224;11.470;2023-05-12T11:12:16;95796.16;;;12.44;66.67
44751;BME280;30477;48.224;11.470;2023-05-12T11:14:43;95803.28;;;12.42;66.37
44751;BME280;30477;48.224;11.470;2023-05-12T11:17:09;95797.59;;;12.38;66.48
44751;BME280;30477;48.224;11.470;2023-05-12T11:19:35;95807.31;;;12.36;66.78
44751;BME280;30477;48.224;11.470;2023-05-12T11:22:10;95802.59;;;12.31;66.84
44751;BME280;30477;48.224;11.470;2023-05-12T11:24:38;95801.00;;;12.38;67.10
44751;BME280;30477;48.224;11.470;2023-05-12T11:27:05;95810.44;;;12.39;66.85
44751;BME280;30477;48.224;11.470;2023-05-12T11:29:31;95810.44;;;12.48;67.19
44751;BME280;30477;48.224;11.470;2023-05-12T11:31:56;95803.13;;;12.51;66.81
44751;BME280;30477;48.224;11.470;2023-05-12T11:34:25;95807.84;;;12.48;67.65
44751;BME280;30477;48.224;11.470;2023-05-12T11:36:52;95816.59;;;12.47;67.81
44751;BME280;30477;48.224;11.470;2023-05-12T11:39:19;95812.88;;;12.41;67.97
44751;BME280;30477;48.224;11.470;2023-05-12T11:41:45;95816.28;;;12.42;68.46
44751;BME280;30477;48.224;11.470;2023-05-12T11:44:12;95809.94;;;12.44;68.77
44751;BME280;30477;48.224;11.470;2023-05-12T11:46:38;95805.75;;;12.43;68.50
44751;BME280;30477;48.224;11.470;2023-05-12T11:49:09;95810.28;;;12.41;68.74
44751;BME280;30477;48.224;11.470;2023-05-12T11:51:40;95811.59;;;12.45;69.23
44751;BME280;30477;48.224;11.470;2023-05-12T11:54:06;95810.59;;;12.46;69.14
44751;BME280;30477;48.224;11.470;2023-05-12T11:56:31;95810.44;;;12.48;69.07
44751;BME280;30477;48.224;11.470;2023-05-12T11:58:57;95816.47;;;12.56;69.43
44751;BME280;30477;48.224;11.470;2023-05-12T12:01:24;95817.78;;;12.61;69.31
44751;BME280;30477;48.224;11.470;2023-05-12T12:03:51;95827.50;;;12.58;69.32
44751;BME280;30477;48.224;11.470;2023-05-12T12:06:18;95824.91;;;12.50;69.33
44751;BME280;30477;48.224;11.470;2023-05-12T12:11:23;95825.06;;;12.57;68.92
44751;BME280;30477;48.224;11.470;2023-05-12T12:13:53;95814.19;;;12.62;69.22
44751;BME280;30477;48.224;11.470;2023-05-12T12:16:29;95819.78;;;12.75;69.56
44751;BME280;30477;48.224;11.470;2023-05-12T12:18:55;95818.63;;;12.69;69.04
44751;BME280;30477;48.224;11.470;2023-05-12T12:21:25;95812.44;;;12.62;68.95
44751;BME280;30477;48.224;11.470;2023-05-12T12:23:51;95814.69;;;12.57;68.84
44751;BME280;30477;48.224;11.470;2023-05-12T12:26:17;95820.69;;;12.57;69.07
44751;BME280;30477;48.224;11.470;2023-05-12T12:28:48;95820.03;;;12.55;69.01
44751;BME280;30477;48.224;11.470;2023-05-12T12:31:14;95815.81;;;12.54;68.86
44751;BME280;30477;48.224;11.470;2023-05-12T12:33:39;95823.47;;;12.56;69.63
44751;BME280;30477;48.224;11.470;2023-05-12T12:36:05;95821.63;;;12.48;70.57
44751;BME280;30477;48.224;11.470;2023-05-12T12:38:31;95820.66;;;12.49;71.08
44751;BME280;30477;48.224;11.470;2023-05-12T12:40:57;95823.91;;;12.43;71.74
44751;BME280;30477;48.224;11.470;2023-05-12T12:43:22;95816.75;;;12.37;72.03
44751;BME280;30477;48.224;11.470;2023-05-12T12:45:47;95823.22;;;12.33;72.33
44751;BME280;30477;48.224;11.470;2023-05-12T12:48:13;95824.31;;;12.30;72.91
44751;BME280;30477;48.224;11.470;2023-05-12T12:50:38;95827.75;;;12.31;73.07
44751;BME280;30477;48.224;11.470;2023-05-12T12:53:04;95827.25;;;12.27;73.47